Terminal Aerodrome Forecast
Issued by NWS Springfield, MO

Home | Current Version | Previous Version | Text Only | Print | Product List | Glossary On
Versions: 1 2 3 4 5 6 7 8 9 10 11 12 13 14 15 16 17 18 19 20
000
FTUS43 KSGF 152300
TAFSGF
TAF
KSGF 152320Z 1600/1624 27010G20KT P6SM OVC015
     FM160900 30012KT P6SM OVC015
     FM162000 31018KT P6SM SCT250=

USA.gov is the U.S. government's official web portal to all federal, state and local government web resources and services.